Time;durP1;ratioP1;P1;durP2;ratioP2;P2;SDS_P1;SDS_P2;PMS_P1;PMS_P2;Temp;Humidity;BMP_temperature;BMP_pressure;BME280_temperature;BME280_humidity;BME280_pressure;Samples;Min_cycle;Max_cycle;Signal;HPM_P1;HPM_P2
2021/10/13 00:00:45;;;;;;;11.30;6.15;;;;;;;6.72;71.12;93426.34;5010850;28;20060;-73
2021/10/13 00:03:10;;;;;;;8.18;5.43;;;;;;;6.82;70.83;93426.13;5020370;28;20037;-74
2021/10/13 00:05:36;;;;;;;10.98;6.45;;;;;;;6.98;70.82;93447.72;5014557;28;20089;-73
2021/10/13 00:08:01;;;;;;;13.32;7.75;;;;;;;6.94;71.53;93440.69;5011736;28;20557;-73
2021/10/13 00:10:27;;;;;;;13.55;6.78;;;;;;;7.09;70.76;93451.69;5009696;28;20488;-72
2021/10/13 00:12:52;;;;;;;14.50;7.18;;;;;;;7.10;70.27;93431.31;5015529;28;20069;-72
2021/10/13 00:15:17;;;;;;;12.65;6.97;;;;;;;7.14;70.12;93419.09;5003892;28;20404;-72
2021/10/13 00:17:43;;;;;;;13.65;8.15;;;;;;;7.45;69.65;93446.34;5008271;28;20772;-72
2021/10/13 00:20:09;;;;;;;10.98;7.03;;;;;;;7.50;68.96;93446.22;5011351;28;20049;-72
2021/10/13 00:22:34;;;;;;;10.57;6.70;;;;;;;7.59;69.21;93441.75;5006183;28;20032;-71
2021/10/13 00:24:59;;;;;;;13.75;6.95;;;;;;;7.57;68.39;93419.34;5015711;28;20495;-72
2021/10/13 00:27:25;;;;;;;14.73;7.63;;;;;;;7.75;68.06;93444.06;5004778;28;20562;-72
2021/10/13 00:29:50;;;;;;;11.82;7.18;;;;;;;7.80;67.15;93433.34;5005133;28;20072;-72
2021/10/13 00:32:16;;;;;;;10.13;5.97;;;;;;;7.71;66.97;93415.53;5009911;28;20540;-72
2021/10/13 00:34:41;;;;;;;10.15;5.95;;;;;;;7.88;66.57;93420.13;5017728;28;20043;-72
2021/10/13 00:37:06;;;;;;;11.30;5.68;;;;;;;7.63;66.88;93418.91;5012705;28;20329;-72
2021/10/13 00:39:32;;;;;;;11.30;6.43;;;;;;;7.55;66.79;93424.94;5005086;28;20068;-72
2021/10/13 00:41:58;;;;;;;12.50;6.80;;;;;;;7.46;66.59;93428.63;5011878;28;20033;-72
2021/10/13 00:44:23;;;;;;;12.57;7.72;;;;;;;7.22;66.89;93403.25;5015671;28;20049;-72
2021/10/13 00:46:48;;;;;;;12.63;6.68;;;;;;;7.22;66.36;93419.13;5007187;28;20171;-72
2021/10/13 00:49:14;;;;;;;11.40;7.07;;;;;;;7.26;66.41;93419.31;5014370;28;20192;-72
2021/10/13 00:51:40;;;;;;;12.52;7.60;;;;;;;7.32;66.32;93423.41;5014817;28;20103;-72
2021/10/13 00:54:05;;;;;;;13.98;7.60;;;;;;;7.41;66.08;93421.59;5013683;28;20055;-72
2021/10/13 00:56:30;;;;;;;12.88;7.68;;;;;;;7.44;65.55;93399.81;5007280;28;20038;-72
2021/10/13 00:58:56;;;;;;;12.00;6.68;;;;;;;7.49;64.64;93396.25;5007902;28;20041;-72
2021/10/13 01:01:54;;;;;;;17.38;7.95;;;;;;;7.26;64.48;93361.13;5006323;28;20152;-73
2021/10/13 01:04:38;;;;;;;13.23;7.45;;;;;;;7.56;64.67;93412.47;5005401;28;20052;-72
2021/10/13 01:07:03;;;;;;;10.70;6.95;;;;;;;7.43;64.96;93418.66;5014102;28;20037;-72
2021/10/13 01:09:41;;;;;;;12.40;6.60;;;;;;;7.40;65.44;93414.72;5012138;28;20110;-72
2021/10/13 01:12:22;;;;;;;12.90;7.95;;;;;;;7.52;65.46;93412.31;5000945;28;20037;-73
2021/10/13 01:14:58;;;;;;;16.33;8.20;;;;;;;7.26;64.83;93367.19;5010920;28;20069;-72
2021/10/13 01:17:40;;;;;;;16.55;8.25;;;;;;;7.67;64.60;93419.88;5004595;28;20041;-72
2021/10/13 01:20:11;;;;;;;10.80;6.75;;;;;;;7.73;63.78;93406.53;5007177;28;20614;-71
2021/10/13 01:22:48;;;;;;;14.27;7.70;;;;;;;7.74;63.36;93419.44;5005065;28;20126;-73
2021/10/13 01:25:38;;;;;;;14.05;7.63;;;;;;;7.86;63.08;93416.25;5006151;28;20109;-73
2021/10/13 01:28:08;;;;;;;16.75;8.48;;;;;;;7.86;63.22;93406.44;5014071;28;20049;-73
2021/10/13 01:30:42;;;;;;;14.20;7.85;;;;;;;7.87;62.48;93401.94;5013061;28;20128;-72
2021/10/13 01:33:24;;;;;;;15.48;8.48;;;;;;;7.91;62.01;93408.94;5014253;28;20558;-72
2021/10/13 01:35:55;;;;;;;15.57;8.00;;;;;;;7.90;62.30;93401.31;5011751;28;20095;-72
2021/10/13 01:38:26;;;;;;;16.25;8.90;;;;;;;7.87;63.00;93412.50;5013445;28;20360;-72
2021/10/13 01:40:56;;;;;;;14.25;8.60;;;;;;;7.80;62.44;93412.16;5014587;28;20029;-73
2021/10/13 01:43:24;;;;;;;18.25;10.52;;;;;;;7.65;62.63;93387.63;5012656;28;20124;-72
2021/10/13 01:45:51;;;;;;;15.65;8.43;;;;;;;7.79;63.11;93395.50;5005318;28;20124;-72
2021/10/13 01:48:19;;;;;;;20.85;10.52;;;;;;;7.88;61.62;93390.22;5009063;28;20048;-72
2021/10/13 01:50:46;;;;;;;17.08;9.85;;;;;;;7.97;60.98;93391.06;5002353;28;20033;-74
2021/10/13 01:53:15;;;;;;;17.13;8.88;;;;;;;8.08;61.55;93402.91;5010914;28;20050;-72
2021/10/13 01:55:43;;;;;;;15.63;8.77;;;;;;;8.03;61.57;93401.19;5010428;28;20034;-72
2021/10/13 01:58:10;;;;;;;17.30;8.43;;;;;;;8.11;60.68;93394.38;5011008;28;20380;-73
2021/10/13 02:00:36;;;;;;;17.40;9.07;;;;;;;7.99;60.66;93378.28;5000206;28;20051;-74
2021/10/13 02:03:06;;;;;;;14.35;8.27;;;;;;;7.95;60.68;93390.59;5011541;28;20050;-71
2021/10/13 02:05:34;;;;;;;14.23;7.15;;;;;;;8.04;60.33;93399.31;5007144;28;20447;-71
2021/10/13 02:08:01;;;;;;;13.70;7.63;;;;;;;8.06;60.77;93411.19;5013717;28;20076;-71
2021/10/13 02:10:27;;;;;;;13.75;7.90;;;;;;;8.11;60.13;93411.06;5008179;28;20026;-72
2021/10/13 02:12:56;;;;;;;13.63;8.90;;;;;;;8.07;60.02;93393.44;5013071;28;20107;-71
2021/10/13 02:15:23;;;;;;;18.27;9.07;;;;;;;8.07;60.09;93417.28;5004589;28;20045;-71
2021/10/13 02:17:51;;;;;;;12.55;7.60;;;;;;;8.03;60.27;93413.66;5013562;28;20116;-71
2021/10/13 02:20:19;;;;;;;13.90;8.07;;;;;;;7.93;60.31;93395.38;5008160;28;20399;-71
2021/10/13 02:22:54;;;;;;;14.07;8.57;;;;;;;8.05;60.71;93416.78;5008113;28;20036;-70
2021/10/13 02:25:19;;;;;;;17.27;8.82;;;;;;;8.08;60.41;93414.31;5014165;28;20029;-71
2021/10/13 02:28:01;;;;;;;12.60;7.57;;;;;;;8.10;60.36;93400.75;5013786;28;20041;-73
2021/10/13 02:30:26;;;;;;;17.13;9.48;;;;;;;8.14;60.54;93414.94;5009164;28;20033;-71
2021/10/13 02:32:52;;;;;;;11.93;7.32;;;;;;;8.17;60.66;93422.28;5011453;28;20025;-71
2021/10/13 02:35:17;;;;;;;19.60;9.35;;;;;;;8.27;60.08;93406.09;5013249;28;20047;-70
2021/10/13 02:37:42;;;;;;;20.00;8.75;;;;;;;8.25;60.01;93412.81;5012845;28;20036;-72
2021/10/13 02:40:08;;;;;;;15.30;8.80;;;;;;;8.36;59.62;93420.16;5015172;28;20063;-73
2021/10/13 02:42:35;;;;;;;14.13;7.50;;;;;;;8.46;59.53;93413.81;5011874;28;20040;-72
2021/10/13 02:45:02;;;;;;;16.40;8.45;;;;;;;8.63;58.58;93415.69;5012600;28;20515;-73
2021/10/13 02:47:45;;;;;;;16.75;7.53;;;;;;;8.64;58.29;93420.69;5014404;28;20133;-72
2021/10/13 02:50:19;;;;;;;13.13;8.40;;;;;;;8.62;58.45;93422.84;5006957;28;20034;-73
2021/10/13 02:53:06;;;;;;;18.20;9.48;;;;;;;8.53;58.68;93425.50;5012844;28;20037;-72
2021/10/13 02:55:50;;;;;;;12.82;7.95;;;;;;;8.68;58.60;93437.53;5015511;28;20498;-72
2021/10/13 02:58:46;;;;;;;12.77;8.05;;;;;;;8.27;58.95;93432.59;5007479;28;20049;-73
2021/10/13 03:01:15;;;;;;;11.27;7.40;;;;;;;8.28;58.98;93423.56;5011262;28;20056;-72
2021/10/13 03:03:49;;;;;;;15.63;8.48;;;;;;;8.33;59.81;93449.91;5013898;28;20522;-72
2021/10/13 03:06:16;;;;;;;13.35;8.20;;;;;;;8.24;59.75;93433.22;5009059;28;20259;-73
2021/10/13 03:08:47;;;;;;;17.35;8.32;;;;;;;8.41;59.76;93459.00;5009240;28;21227;-72
2021/10/13 03:11:15;;;;;;;16.40;8.13;;;;;;;8.40;59.74;93463.50;5007169;28;20079;-73
2021/10/13 03:13:44;;;;;;;16.15;9.43;;;;;;;8.39;59.63;93464.59;5008921;28;20472;-72
2021/10/13 03:16:11;;;;;;;13.82;8.70;;;;;;;8.51;59.20;93459.47;5012696;28;20032;-72
2021/10/13 03:18:40;;;;;;;15.73;8.77;;;;;;;8.41;59.13;93440.44;5004381;28;20096;-72
2021/10/13 03:21:08;;;;;;;14.57;7.90;;;;;;;8.49;58.72;93445.75;5012580;28;20076;-72
2021/10/13 03:23:34;;;;;;;14.35;7.88;;;;;;;8.61;58.18;93468.25;5005695;28;20033;-72
2021/10/13 03:26:10;;;;;;;16.50;8.95;;;;;;;8.68;58.26;93471.22;5005712;28;20037;-73
2021/10/13 03:28:37;;;;;;;12.93;8.55;;;;;;;8.59;58.79;93461.38;5015050;28;20025;-73
2021/10/13 03:31:03;;;;;;;15.57;9.23;;;;;;;8.70;58.60;93466.38;5006283;28;20128;-71
2021/10/13 03:33:28;;;;;;;14.25;7.45;;;;;;;8.79;58.19;93467.19;5008560;28;20041;-72
2021/10/13 03:35:54;;;;;;;19.63;8.88;;;;;;;8.79;57.63;93465.31;5012089;28;20280;-72
2021/10/13 03:38:20;;;;;;;14.40;8.55;;;;;;;8.50;57.76;93441.25;5011046;28;20037;-72
2021/10/13 03:40:45;;;;;;;13.13;9.13;;;;;;;8.65;58.06;93469.19;5008348;28;20095;-72
2021/10/13 03:43:10;;;;;;;18.15;9.15;;;;;;;8.62;57.99;93444.06;5007988;28;20343;-73
2021/10/13 03:45:36;;;;;;;14.27;9.55;;;;;;;8.70;57.60;93472.47;5008316;28;20036;-73
2021/10/13 03:48:02;;;;;;;12.35;8.02;;;;;;;8.53;57.75;93459.94;5010968;28;20439;-73
2021/10/13 03:50:27;;;;;;;13.50;7.93;;;;;;;8.48;57.86;93465.41;5013147;28;20573;-72
2021/10/13 03:52:53;;;;;;;14.43;8.23;;;;;;;8.53;57.79;93456.50;5012969;28;20025;-73
2021/10/13 03:55:19;;;;;;;13.95;8.43;;;;;;;8.68;57.57;93468.56;5001975;28;20655;-72
2021/10/13 03:57:45;;;;;;;14.02;8.10;;;;;;;8.46;57.04;93454.31;5012114;28;20060;-72
2021/10/13 04:00:20;;;;;;;15.38;8.20;;;;;;;8.31;57.67;93475.16;5007990;28;20203;-73
2021/10/13 04:02:46;;;;;;;12.23;7.60;;;;;;;8.24;57.63;93480.91;5012310;28;20496;-72
2021/10/13 04:05:11;;;;;;;13.57;8.13;;;;;;;8.15;58.11;93461.53;5010270;28;20512;-72
2021/10/13 04:07:37;;;;;;;15.27;8.23;;;;;;;7.99;57.74;93463.81;5004755;28;20026;-72
2021/10/13 04:10:05;;;;;;;12.48;7.43;;;;;;;8.12;58.05;93476.16;5011508;28;20904;-72
2021/10/13 04:12:31;;;;;;;13.63;8.50;;;;;;;8.07;57.64;93483.50;5007076;28;20041;-71
2021/10/13 04:14:56;;;;;;;15.57;8.77;;;;;;;8.09;58.31;93484.72;5005110;28;21112;-71
2021/10/13 04:17:22;;;;;;;18.40;10.02;;;;;;;8.02;58.41;93470.38;5012848;28;20038;-71
2021/10/13 04:19:47;;;;;;;13.63;8.88;;;;;;;8.14;57.94;93487.25;5006798;28;20029;-71
2021/10/13 04:22:13;;;;;;;16.85;8.23;;;;;;;8.15;57.48;93469.50;5012448;28;20415;-71
2021/10/13 04:24:38;;;;;;;27.35;14.88;;;;;;;8.08;57.64;93483.16;5011368;28;20103;-71
2021/10/13 04:27:04;;;;;;;20.25;10.73;;;;;;;8.00;57.86;93486.56;5012517;28;20174;-72
2021/10/13 04:29:29;;;;;;;15.32;10.15;;;;;;;7.93;57.98;93480.91;5014257;28;20045;-71
2021/10/13 04:31:55;;;;;;;15.18;9.13;;;;;;;7.93;58.26;93486.19;5007405;28;20842;-71
2021/10/13 04:34:21;;;;;;;22.80;9.40;;;;;;;8.09;57.77;93497.19;5013421;28;20053;-73
2021/10/13 04:36:46;;;;;;;14.52;8.13;;;;;;;8.11;56.94;93500.31;5030535;28;20458;-72
2021/10/13 04:39:12;;;;;;;13.80;8.48;;;;;;;7.96;56.44;93479.53;5008430;28;20507;-71
2021/10/13 04:41:37;;;;;;;13.77;8.35;;;;;;;7.88;56.71;93486.31;5013730;28;20106;-71
2021/10/13 04:44:03;;;;;;;13.93;8.52;;;;;;;7.64;56.99;93501.72;5008754;28;20395;-71
2021/10/13 04:46:28;;;;;;;14.95;7.75;;;;;;;7.45;56.84;93488.69;5014763;28;20364;-72
2021/10/13 04:48:53;;;;;;;15.38;8.40;;;;;;;7.25;57.41;93492.59;5014709;28;20053;-71
2021/10/13 04:51:19;;;;;;;16.13;7.95;;;;;;;7.08;58.23;93524.19;5015839;28;20041;-73
2021/10/13 04:53:44;;;;;;;15.38;9.32;;;;;;;7.03;58.77;93521.66;5010081;28;20073;-72
2021/10/13 04:56:10;;;;;;;15.07;8.18;;;;;;;7.02;58.44;93529.88;5015068;28;20826;-71
2021/10/13 04:58:35;;;;;;;11.82;8.30;;;;;;;6.88;57.66;93527.25;5009121;28;20025;-71
2021/10/13 05:01:01;;;;;;;13.00;8.32;;;;;;;6.95;58.23;93537.41;5011960;28;20498;-70
2021/10/13 05:03:26;;;;;;;14.63;9.02;;;;;;;7.04;58.20;93546.25;5015616;28;20689;-72
2021/10/13 05:05:52;;;;;;;13.57;8.40;;;;;;;7.15;57.56;93529.84;5010431;28;20045;-71
2021/10/13 05:08:17;;;;;;;14.52;7.90;;;;;;;7.18;57.60;93544.34;5012203;28;20474;-70
2021/10/13 05:10:42;;;;;;;12.35;8.00;;;;;;;7.11;57.71;93534.16;5003357;28;20101;-71
2021/10/13 05:13:08;;;;;;;13.10;8.25;;;;;;;7.22;57.38;93546.09;5010256;28;20044;-71
2021/10/13 05:15:35;;;;;;;12.02;7.85;;;;;;;7.14;57.24;93552.06;5010645;28;20413;-71
2021/10/13 05:18:00;;;;;;;14.57;7.72;;;;;;;7.05;57.39;93555.72;5014150;28;20083;-71
2021/10/13 05:20:26;;;;;;;13.07;8.43;;;;;;;6.82;57.25;93534.50;5010446;28;20054;-71
2021/10/13 05:22:51;;;;;;;12.30;7.95;;;;;;;7.12;57.23;93556.88;5015555;28;20029;-71
2021/10/13 05:25:17;;;;;;;13.50;8.18;;;;;;;7.23;57.57;93557.47;5012550;28;20506;-71
2021/10/13 05:27:42;;;;;;;17.60;9.93;;;;;;;7.22;56.87;93561.19;5001005;28;20049;-72
2021/10/13 05:30:08;;;;;;;18.30;9.98;;;;;;;7.30;56.71;93557.81;5016551;28;20500;-71
2021/10/13 05:32:33;;;;;;;13.85;8.50;;;;;;;7.22;56.62;93555.88;5009467;28;20045;-71
2021/10/13 05:34:59;;;;;;;21.60;9.85;;;;;;;7.33;56.31;93554.59;5009198;28;20045;-71
2021/10/13 05:37:24;;;;;;;15.60;8.63;;;;;;;7.18;56.60;93547.78;5010113;28;20025;-71
2021/10/13 05:39:50;;;;;;;14.05;8.60;;;;;;;7.16;56.87;93551.78;5010115;28;20036;-71
2021/10/13 05:42:15;;;;;;;15.00;8.70;;;;;;;7.39;56.59;93571.09;5011224;28;20045;-71
2021/10/13 05:44:41;;;;;;;16.25;7.68;;;;;;;7.27;55.89;93571.66;5002504;28;20089;-72
2021/10/13 05:47:06;;;;;;;19.95;10.40;;;;;;;7.05;56.74;93561.78;5015752;28;20050;-71
2021/10/13 05:49:33;;;;;;;13.48;7.90;;;;;;;7.12;56.63;93571.97;5015357;28;20541;-71
2021/10/13 05:52:00;;;;;;;13.02;8.25;;;;;;;7.24;56.63;93580.94;5010291;28;20135;-71
2021/10/13 05:54:25;;;;;;;13.57;7.07;;;;;;;7.26;56.61;93581.44;5013712;28;20037;-71
2021/10/13 05:56:51;;;;;;;15.38;8.15;;;;;;;7.32;56.33;93576.81;5003592;28;20104;-71
2021/10/13 05:59:17;;;;;;;12.40;7.82;;;;;;;7.41;55.85;93585.63;5005188;28;20037;-72
2021/10/13 06:01:44;;;;;;;13.38;7.35;;;;;;;7.57;55.54;93586.06;5008542;28;20033;-71
2021/10/13 06:04:09;;;;;;;12.65;7.25;;;;;;;7.64;55.06;93586.41;5006843;28;20022;-71
2021/10/13 06:06:34;;;;;;;11.35;7.07;;;;;;;7.59;54.64;93587.31;5011482;28;20041;-71
2021/10/13 06:09:00;;;;;;;14.40;8.15;;;;;;;7.68;55.17;93585.53;5011399;28;20610;-71
2021/10/13 06:11:25;;;;;;;16.55;8.32;;;;;;;7.67;54.33;93593.78;5014313;28;20111;-71
2021/10/13 06:13:52;;;;;;;14.95;8.25;;;;;;;7.60;54.38;93594.19;5007760;28;20047;-71
2021/10/13 06:16:23;;;;;;;12.82;7.38;;;;;;;7.40;54.67;93576.09;5009638;28;20057;-71
2021/10/13 06:18:50;;;;;;;13.27;7.95;;;;;;;7.48;54.24;93598.44;5010066;28;20068;-71
2021/10/13 06:21:20;;;;;;;12.05;6.65;;;;;;;7.40;54.62;93599.91;5013226;28;20434;-71
2021/10/13 06:23:45;;;;;;;14.75;7.30;;;;;;;7.31;55.18;93609.66;5005228;28;20044;-71
2021/10/13 06:26:11;;;;;;;15.70;9.30;;;;;;;7.17;54.71;93611.53;5011999;28;20684;-71
2021/10/13 06:28:37;;;;;;;15.63;7.38;;;;;;;7.21;54.88;93617.78;5008660;28;20072;-72
2021/10/13 06:31:03;;;;;;;10.82;7.57;;;;;;;7.36;54.79;93609.53;5011229;28;20482;-73
2021/10/13 06:33:28;;;;;;;11.38;7.47;;;;;;;7.39;54.88;93598.34;5015792;28;20200;-71
2021/10/13 06:35:55;;;;;;;15.02;8.93;;;;;;;7.61;54.31;93611.63;5009168;28;20029;-72
2021/10/13 06:38:20;;;;;;;11.60;7.68;;;;;;;7.48;53.91;93596.59;5011820;28;20041;-72
2021/10/13 06:40:46;;;;;;;12.65;7.75;;;;;;;7.71;54.18;93614.06;5005291;28;20542;-72
2021/10/13 06:43:11;;;;;;;10.38;6.80;;;;;;;7.78;53.03;93616.31;5011829;28;20476;-72
2021/10/13 06:45:38;;;;;;;13.25;8.93;;;;;;;7.64;53.34;93599.66;5012343;28;20136;-72
2021/10/13 06:48:05;;;;;;;11.75;7.32;;;;;;;7.84;52.89;93614.31;5012569;28;20052;-72
2021/10/13 06:50:31;;;;;;;14.65;7.40;;;;;;;7.85;53.30;93610.59;5012802;28;20038;-71
2021/10/13 06:52:57;;;;;;;11.13;7.32;;;;;;;8.02;53.28;93610.75;5008994;28;20060;-72
2021/10/13 06:55:22;;;;;;;16.70;8.63;;;;;;;7.87;53.38;93603.94;5008515;28;20560;-72
2021/10/13 06:57:48;;;;;;;13.40;7.07;;;;;;;8.04;53.92;93606.69;5012433;28;20046;-74
2021/10/13 07:00:14;;;;;;;13.25;8.52;;;;;;;8.18;52.31;93614.56;5005420;28;20147;-72
2021/10/13 07:02:40;;;;;;;12.90;6.90;;;;;;;8.31;52.15;93619.03;5006865;28;20104;-72
2021/10/13 07:05:09;;;;;;;12.90;7.18;;;;;;;8.39;53.33;93610.34;4995149;28;20140;-74
2021/10/13 07:07:52;;;;;;;13.10;7.13;;;;;;;8.52;51.98;93614.75;5001801;28;20083;-72
2021/10/13 07:10:18;;;;;;;13.45;7.85;;;;;;;8.57;52.74;93611.97;5001681;28;20686;-72
2021/10/13 07:12:44;;;;;;;9.77;6.47;;;;;;;8.66;50.96;93603.31;5012233;28;20037;-73
2021/10/13 07:15:10;;;;;;;12.75;7.07;;;;;;;8.74;51.64;93605.19;5009806;28;20619;-72
2021/10/13 07:17:36;;;;;;;10.43;7.03;;;;;;;8.81;52.08;93621.44;5009326;28;20045;-74
2021/10/13 07:20:04;;;;;;;12.80;7.35;;;;;;;8.73;51.63;93603.63;5008003;28;20033;-72
2021/10/13 07:22:31;;;;;;;10.63;6.28;;;;;;;8.81;51.17;93610.81;5007534;28;20557;-72
2021/10/13 07:24:58;;;;;;;12.52;7.45;;;;;;;8.59;51.26;93588.63;5001046;28;20549;-72
2021/10/13 07:27:24;;;;;;;10.00;5.70;;;;;;;8.83;50.80;93619.28;5011332;28;20998;-72
2021/10/13 07:30:03;;;;;;;11.32;6.95;;;;;;;8.72;50.72;93599.41;5008589;28;20108;-73
2021/10/13 07:32:31;;;;;;;16.42;6.25;;;;;;;8.56;50.46;93621.00;5015734;28;20060;-73
2021/10/13 07:34:57;;;;;;;13.45;7.32;;;;;;;8.43;50.97;93600.69;5012977;28;20054;-73
2021/10/13 07:37:23;;;;;;;11.48;6.95;;;;;;;8.41;50.93;93616.09;5001588;28;20021;-73
2021/10/13 07:39:49;;;;;;;17.10;8.23;;;;;;;8.59;51.94;93609.81;5012111;28;20037;-72
2021/10/13 07:42:21;;;;;;;13.75;7.20;;;;;;;8.77;51.81;93610.66;4999914;28;20034;-72
2021/10/13 07:44:46;;;;;;;9.48;6.60;;;;;;;8.97;50.67;93612.78;5012162;28;20040;-72
2021/10/13 07:47:12;;;;;;;16.35;7.40;;;;;;;8.93;49.65;93619.00;5004739;28;20065;-72
2021/10/13 07:49:40;;;;;;;12.70;6.68;;;;;;;8.85;49.32;93609.91;5009334;28;20029;-73
2021/10/13 07:52:06;;;;;;;9.18;6.07;;;;;;;8.87;49.61;93609.59;5011599;28;20369;-72
2021/10/13 07:54:32;;;;;;;10.90;7.10;;;;;;;8.92;49.87;93601.50;5013424;28;20096;-72
2021/10/13 07:56:57;;;;;;;12.43;6.07;;;;;;;9.05;48.76;93621.06;5014589;28;20393;-71
2021/10/13 07:59:23;;;;;;;11.10;7.10;;;;;;;9.14;49.29;93619.25;5015825;28;20048;-72
2021/10/13 08:01:48;;;;;;;9.93;6.40;;;;;;;8.91;48.01;93597.28;5012805;28;20162;-71
2021/10/13 08:04:14;;;;;;;10.45;7.03;;;;;;;9.12;49.03;93627.50;5017395;28;20736;-73
2021/10/13 08:06:39;;;;;;;10.13;6.88;;;;;;;9.16;48.53;93628.47;5025561;28;20048;-72
2021/10/13 08:09:05;;;;;;;13.15;7.30;;;;;;;9.09;49.67;93595.50;5008771;28;20593;-71
2021/10/13 08:11:30;;;;;;;14.55;7.53;;;;;;;9.38;48.70;93636.34;5015654;28;20132;-71
2021/10/13 08:13:56;;;;;;;10.15;7.03;;;;;;;9.46;49.30;93624.16;5007345;28;20080;-72
2021/10/13 08:16:21;;;;;;;11.20;6.82;;;;;;;9.66;49.26;93636.84;5013416;28;20047;-71
2021/10/13 08:18:47;;;;;;;12.85;6.65;;;;;;;9.73;47.79;93626.53;5013485;28;20418;-72
2021/10/13 08:21:12;;;;;;;9.25;5.72;;;;;;;9.77;48.33;93639.97;5016926;28;20111;-71
2021/10/13 08:23:38;;;;;;;10.43;7.18;;;;;;;9.63;48.74;93628.72;5010475;28;20052;-71
2021/10/13 08:26:03;;;;;;;13.85;7.40;;;;;;;9.59;48.48;93614.47;5012620;28;20172;-72
2021/10/13 08:28:29;;;;;;;11.73;6.38;;;;;;;9.77;48.57;93637.31;5015896;28;20430;-71
2021/10/13 08:30:56;;;;;;;11.95;6.47;;;;;;;9.74;48.08;93629.97;5009758;28;20346;-72
2021/10/13 08:33:21;;;;;;;13.65;6.53;;;;;;;9.63;48.19;93620.75;5015011;28;20037;-72
2021/10/13 08:35:47;;;;;;;9.05;5.45;;;;;;;9.63;48.44;93634.03;5008329;28;20041;-72
2021/10/13 08:38:13;;;;;;;13.68;8.95;;;;;;;9.68;48.67;93628.56;5012442;28;20037;-71
2021/10/13 08:40:40;;;;;;;11.80;7.45;;;;;;;9.84;49.24;93637.63;5009543;28;20060;-73
2021/10/13 08:43:05;;;;;;;9.85;5.88;;;;;;;9.71;48.14;93625.28;5012385;28;20107;-72
2021/10/13 08:45:32;;;;;;;12.32;6.90;;;;;;;9.90;48.65;93628.41;5012419;28;20636;-72
2021/10/13 08:47:58;;;;;;;9.50;6.40;;;;;;;9.99;49.29;93634.50;5008966;28;20100;-74
2021/10/13 08:50:26;;;;;;;10.98;6.78;;;;;;;9.97;48.14;93636.72;5012323;28;20045;-72
2021/10/13 08:52:53;;;;;;;11.60;6.95;;;;;;;9.88;48.65;93622.63;5010776;28;20100;-72
2021/10/13 08:55:19;;;;;;;8.75;6.00;;;;;;;9.81;49.19;93627.63;5011673;28;20371;-72
2021/10/13 08:57:44;;;;;;;10.73;6.97;;;;;;;10.08;48.99;93647.78;5007690;28;20483;-73
2021/10/13 09:00:19;;;;;;;15.30;7.15;;;;;;;10.15;49.95;93643.56;5010237;28;20044;-72
2021/10/13 09:02:45;;;;;;;23.55;9.55;;;;;;;10.30;48.60;93650.28;5006521;28;20044;-72
2021/10/13 09:05:13;;;;;;;11.60;6.47;;;;;;;10.10;48.52;93662.31;5007577;28;20408;-74
2021/10/13 09:07:49;;;;;;;11.23;6.88;;;;;;;10.10;48.10;93662.31;5014274;28;20021;-73
2021/10/13 09:10:34;;;;;;;12.40;7.35;;;;;;;10.00;48.22;93654.66;5007912;28;20035;-73
2021/10/13 09:13:04;;;;;;;13.38;7.53;;;;;;;10.04;48.74;93660.13;5006274;28;20345;-74
2021/10/13 09:15:32;;;;;;;8.07;5.80;;;;;;;10.06;48.44;93652.63;4998293;28;20038;-73
2021/10/13 09:18:07;;;;;;;11.05;6.85;;;;;;;10.09;48.03;93644.03;5004371;28;20045;-72
2021/10/13 09:20:36;;;;;;;;;;;;;;;10.15;47.95;93648.88;5009486;28;20130;-72
2021/10/13 09:23:05;;;;;;;14.68;6.50;;;;;;;10.31;48.28;93652.63;5005417;28;19955;-73
2021/10/13 09:25:32;;;;;;;8.88;5.85;;;;;;;10.31;47.86;93646.53;5008938;28;20493;-72
2021/10/13 09:27:58;;;;;;;11.75;7.20;;;;;;;10.33;47.89;93636.34;4986604;28;20075;-74
2021/10/13 09:30:29;;;;;;;12.48;6.28;;;;;;;10.44;48.32;93660.75;5000853;28;20594;-73
2021/10/13 09:33:06;;;;;;;11.45;7.65;;;;;;;10.27;47.35;93641.03;4993570;28;20087;-72
2021/10/13 09:35:32;;;;;;;10.00;7.00;;;;;;;10.20;46.94;93653.25;5002153;28;20037;-74
2021/10/13 09:37:58;;;;;;;10.68;6.10;;;;;;;10.20;47.82;93664.66;5001982;28;20535;-72
2021/10/13 09:40:35;;;;;;;10.18;6.15;;;;;;;10.12;47.29;93659.38;5006233;28;20373;-72
2021/10/13 09:43:01;;;;;;;14.63;7.43;;;;;;;9.96;48.73;93661.69;5002404;28;20050;-72
2021/10/13 09:45:29;;;;;;;11.65;6.85;;;;;;;10.10;47.79;93667.66;5002009;28;20041;-73
2021/10/13 09:48:00;;;;;;;10.88;6.68;;;;;;;10.02;48.32;93639.22;5001606;28;20124;-73
2021/10/13 09:51:11;;;;;;;12.00;6.47;;;;;;;10.29;47.54;93656.69;5006143;28;21087;-73
2021/10/13 09:53:36;;;;;;;11.00;7.05;;;;;;;10.24;48.10;93670.91;4991273;28;20049;-74
2021/10/13 09:56:02;;;;;;;11.02;7.18;;;;;;;10.18;49.19;93666.84;5004955;28;20485;-72
2021/10/13 09:58:34;;;;;;;8.95;6.20;;;;;;;10.30;47.17;93671.53;5006235;28;20021;-74
2021/10/13 10:01:14;;;;;;;10.50;6.47;;;;;;;10.33;47.19;93665.59;5004212;28;21024;-73
2021/10/13 10:03:42;;;;;;;10.32;6.68;;;;;;;10.27;48.04;93670.28;5003642;28;20033;-73
2021/10/13 10:06:09;;;;;;;13.73;6.65;;;;;;;10.35;47.85;93668.72;4999069;28;20041;-73
2021/10/13 10:08:50;;;;;;;9.68;6.30;;;;;;;10.34;47.99;93669.81;5005305;28;20064;-72
2021/10/13 10:11:30;;;;;;;9.75;6.28;;;;;;;10.39;48.76;93661.72;4996566;28;20037;-72
2021/10/13 10:14:05;;;;;;;9.45;6.53;;;;;;;10.55;47.45;93668.09;5008749;28;20180;-74
2021/10/13 10:16:32;;;;;;;12.15;7.05;;;;;;;10.42;47.10;93652.31;5008922;28;20080;-72
2021/10/13 10:19:21;;;;;;;12.85;7.10;;;;;;;10.64;47.77;93670.75;5002745;28;20301;-73
2021/10/13 10:21:57;;;;;;;11.05;6.70;;;;;;;10.71;46.64;93671.81;5007327;28;20053;-74
2021/10/13 10:24:27;;;;;;;9.68;5.70;;;;;;;10.70;47.45;93674.81;5005729;28;20059;-73
2021/10/13 10:27:31;;;;;;;10.02;5.97;;;;;;;10.70;47.14;93670.25;5005586;28;20049;-74
2021/10/13 10:30:18;;;;;;;10.82;6.55;;;;;;;10.54;46.61;93676.38;5000022;28;20881;-72
2021/10/13 10:33:14;;;;;;;10.23;5.85;;;;;;;10.60;46.74;93667.16;5004856;28;20119;-73
2021/10/13 10:35:43;;;;;;;11.32;6.68;;;;;;;10.27;46.57;93617.13;4998338;28;20318;-73
2021/10/13 10:38:12;;;;;;;8.80;6.95;;;;;;;10.60;46.71;93656.53;5006573;28;20120;-74
2021/10/13 10:40:40;;;;;;;8.90;5.80;;;;;;;10.73;46.86;93668.84;5003385;28;20033;-72
2021/10/13 10:43:21;;;;;;;9.73;5.82;;;;;;;10.86;46.84;93667.84;5005556;28;20022;-74
2021/10/13 10:45:59;;;;;;;9.50;6.28;;;;;;;10.98;46.72;93667.19;5003375;28;20130;-74
2021/10/13 10:48:26;;;;;;;15.77;7.88;;;;;;;10.84;47.00;93629.38;5006010;28;20950;-72
2021/10/13 10:50:51;;;;;;;11.70;7.00;;;;;;;11.12;45.86;93668.56;5002476;28;20049;-72
2021/10/13 10:53:27;;;;;;;8.82;5.75;;;;;;;11.11;46.33;93667.00;5007473;28;20052;-72
2021/10/13 10:55:55;;;;;;;9.98;6.40;;;;;;;11.08;46.56;93670.31;5010731;28;20045;-72
2021/10/13 10:58:23;;;;;;;10.43;7.32;;;;;;;11.01;46.66;93670.00;5007741;28;20022;-72
2021/10/13 11:01:13;;;;;;;12.57;7.22;;;;;;;11.18;46.81;93659.31;5003501;28;20045;-73
2021/10/13 11:03:41;;;;;;;17.77;7.35;;;;;;;11.18;46.88;93664.63;5007172;28;20041;-72
2021/10/13 11:06:09;;;;;;;12.25;6.65;;;;;;;11.25;46.30;93658.78;5011271;28;20065;-72
2021/10/13 11:08:34;;;;;;;8.98;5.97;;;;;;;11.35;45.49;93662.97;5009620;28;20041;-73
2021/10/13 11:11:13;;;;;;;7.22;4.97;;;;;;;11.29;45.66;93642.97;5005729;28;20037;-73
2021/10/13 11:13:39;;;;;;;8.52;5.85;;;;;;;11.47;45.93;93660.41;5006117;28;20446;-74
2021/10/13 11:16:12;;;;;;;10.25;6.00;;;;;;;11.45;45.36;93663.38;5010079;28;20048;-73
2021/10/13 11:18:37;;;;;;;9.85;5.60;;;;;;;11.41;45.72;93664.34;5008850;28;20041;-73
2021/10/13 11:21:12;;;;;;;8.05;5.78;;;;;;;11.33;45.89;93665.19;5006275;28;20451;-74
2021/10/13 11:23:37;;;;;;;;;;;;;;;11.37;44.70;93663.44;5003135;28;20041;-73
2021/10/13 11:26:03;;;;;;;10.13;5.15;;;;;;;11.05;45.06;93652.28;5002798;28;20415;-73
2021/10/13 11:28:34;;;;;;;9.18;4.95;;;;;;;10.96;44.73;93642.78;5004588;28;20362;-72
2021/10/13 11:31:03;;;;;;;8.23;5.20;;;;;;;11.24;44.04;93661.78;5013041;28;20148;-74
2021/10/13 11:33:29;;;;;;;9.35;6.28;;;;;;;10.97;44.43;93674.41;5019601;28;20425;-73
2021/10/13 11:36:01;;;;;;;10.27;5.13;;;;;;;10.76;44.20;93644.25;5007312;28;20041;-72
2021/10/13 11:38:31;;;;;;;10.18;5.10;;;;;;;10.67;44.49;93659.47;5012401;28;20045;-73